Portada
METAR-TAF:

METAR-TAF

Aeroports :

Fort-de-France, Martinica

latitud: 14-36N, longitud: 061-00W, altitud: 5 m

Observació

L'informe es va fer fa 15 minuts, a les 10:30 UTC
Vent 7 kt del Est
Temperatura 27°C
Humitat 74%
Pressió 1013 hPa
Visibilitat 10 km o més
Escasses núvols a una alçada de 2600 ft
Núvols disperses a una alçada de 15000 ft

METAR: TFFF 141030Z AUTO 08007KT 9999 FEW026 SCT150 27/22 Q1013 NOSIG

Hora: 06:45 (10:45 UTC)

Pronòstic

L'informe es va fer fa 6 hores i 45 minuts, a les 04:00 UTC
Pronòstic vàlid del 14 a les 06 UTC al 15 a les 06 UTC
Vent 12 kt del Est
Visibilitat 10 km o més
Núvols disperses a una alçada de 2500 ft
Temporalment
l' 14 a les 06 UTC al 14 a les 10 UTC
Vent 4 kt del Est
Probabilitat 30% :
Temporalment
l' 14 a les 23 UTC al 15 a les 06 UTC
Visibilitat: 4000 m
Cel ennuvolat a una alçada de 1800 ft, Cumulus congestus.
xàfecs de pluja

TAF: TFFF 140400Z 1406/1506 10012KT 9999 SCT025 TEMPO 1406/1410 09004KT PROB30 TEMPO 1423/1506 4000 SHRA BKN018TCU

Observacions i pronòstics meteorològics de més de 4000 aeroports (METAR i TAF).

Les estacions disponibles són els punts grocs i vermells al mapa.

Posi el ratolí al punt desitjat per veure el nom de l'estació.

Feu clic per veure les observacions i els pronòstics meteorològics.

Per canviar el mapa: feu clic els botons verds amb una creu de color negre per apropar; al botó verd amb un guió per allunyar la imatge; o en les fletxes verdes per a mapes adjacents.


METAR-TAF: